createdAt,value
2023-12-08T00:00:48.983Z,9.38
2023-12-08T00:03:15.566Z,10.32
2023-12-08T00:05:42.251Z,10.00
2023-12-08T00:08:08.826Z,10.20
2023-12-08T00:10:35.381Z,10.50
2023-12-08T00:13:01.929Z,9.98
2023-12-08T00:15:28.526Z,10.70
2023-12-08T00:17:55.217Z,9.95
2023-12-08T00:20:21.932Z,10.43
2023-12-08T00:22:49.025Z,10.65
2023-12-08T00:25:16.337Z,10.88
2023-12-08T00:27:43.470Z,10.43
2023-12-08T00:30:10.411Z,10.77
2023-12-08T00:32:37.188Z,10.73
2023-12-08T00:35:03.978Z,11.15
2023-12-08T00:37:30.569Z,10.63
2023-12-08T00:39:57.235Z,10.73
2023-12-08T00:42:23.770Z,10.98
2023-12-08T00:44:50.352Z,10.57
2023-12-08T00:47:17.135Z,11.40
2023-12-08T00:49:43.813Z,10.88
2023-12-08T00:52:10.420Z,10.88
2023-12-08T00:54:36.954Z,11.05
2023-12-08T00:57:03.855Z,10.10
2023-12-08T00:59:30.678Z,10.70
2023-12-08T01:01:57.430Z,10.95
2023-12-08T01:04:23.977Z,11.13
2023-12-08T01:06:53.219Z,10.82
2023-12-08T01:09:19.748Z,10.20
2023-12-08T01:11:46.449Z,10.10
2023-12-08T01:14:12.975Z,10.85
2023-12-08T01:16:41.720Z,11.63
2023-12-08T01:21:40.481Z,9.50
2023-12-08T01:24:07.439Z,10.45
2023-12-08T01:26:34.207Z,10.23
2023-12-08T01:29:00.934Z,11.20
2023-12-08T01:31:27.512Z,9.68
2023-12-08T01:33:54.336Z,11.18
2023-12-08T01:36:39.607Z,10.73
2023-12-08T01:39:07.614Z,10.45
2023-12-08T01:41:34.424Z,9.68
2023-12-08T01:44:01.263Z,10.90
2023-12-08T01:46:27.920Z,10.30
2023-12-08T01:48:54.721Z,9.68
2023-12-08T01:51:22.754Z,9.75
2023-12-08T01:53:49.967Z,10.48
2023-12-08T01:56:17.010Z,10.48
2023-12-08T01:58:44.225Z,10.15
2023-12-08T02:01:11.858Z,9.93
2023-12-08T02:03:41.056Z,9.77
2023-12-08T02:06:08.077Z,10.18
2023-12-08T02:08:34.779Z,9.82
2023-12-08T02:11:01.379Z,9.90
2023-12-08T02:13:27.924Z,9.80
2023-12-08T02:16:00.259Z,10.35
2023-12-08T02:18:27.174Z,10.45
2023-12-08T02:20:53.907Z,9.65
2023-12-08T02:23:20.392Z,10.07
2023-12-08T02:25:47.083Z,9.63
2023-12-08T02:28:13.618Z,9.05
2023-12-08T02:30:40.097Z,9.45
2023-12-08T02:33:13.298Z,9.85
2023-12-08T02:35:42.228Z,8.77
2023-12-08T02:38:11.134Z,8.93
2023-12-08T02:40:37.885Z,9.20
2023-12-08T02:43:04.770Z,9.10
2023-12-08T02:45:31.360Z,9.60
2023-12-08T02:47:58.308Z,10.27
2023-12-08T02:50:25.147Z,9.68
2023-12-08T02:52:52.654Z,9.35
2023-12-08T02:55:19.446Z,10.00
2023-12-08T02:57:46.002Z,10.35
2023-12-08T03:00:13.175Z,9.25
2023-12-08T03:02:39.898Z,9.30
2023-12-08T03:05:06.990Z,9.95
2023-12-08T03:07:33.460Z,9.45
2023-12-08T03:10:00.099Z,9.43
2023-12-08T03:12:26.847Z,9.02
2023-12-08T03:14:53.487Z,8.57
2023-12-08T03:17:20.056Z,9.00
2023-12-08T03:19:46.596Z,9.73
2023-12-08T03:22:13.833Z,9.18
2023-12-08T03:24:40.315Z,8.85
2023-12-08T03:27:07.228Z,9.15
2023-12-08T03:29:33.811Z,8.75
2023-12-08T03:32:00.330Z,9.25
2023-12-08T03:34:27.122Z,9.88
2023-12-08T03:36:53.645Z,9.13
2023-12-08T03:39:20.225Z,8.27
2023-12-08T03:41:46.829Z,9.13
2023-12-08T03:44:14.101Z,9.10
2023-12-08T03:46:43.521Z,9.45
2023-12-08T03:49:10.432Z,8.93
2023-12-08T03:51:37.093Z,8.82
2023-12-08T03:54:03.798Z,9.27
2023-12-08T03:56:30.448Z,9.43
2023-12-08T03:58:57.035Z,9.55
2023-12-08T04:01:23.580Z,9.20
2023-12-08T04:03:50.162Z,9.93
2023-12-08T04:06:16.884Z,10.07
2023-12-08T04:08:43.528Z,10.07
2023-12-08T04:11:10.741Z,10.25
2023-12-08T04:13:39.488Z,9.20
2023-12-08T04:18:32.910Z,8.60
2023-12-08T04:20:59.467Z,9.32
2023-12-08T04:23:26.278Z,9.65
2023-12-08T04:25:54.644Z,9.52
2023-12-08T04:28:22.041Z,10.30
2023-12-08T04:30:48.537Z,10.30
2023-12-08T04:33:15.303Z,10.07
2023-12-08T04:35:41.854Z,9.73
2023-12-08T04:38:08.357Z,9.93
2023-12-08T04:40:34.871Z,9.68
2023-12-08T04:43:01.428Z,10.30
2023-12-08T04:45:27.965Z,10.93
2023-12-08T04:47:54.622Z,10.25
2023-12-08T04:50:21.159Z,10.05
2023-12-08T04:52:47.607Z,10.73
2023-12-08T04:55:14.280Z,10.25
2023-12-08T04:57:40.814Z,10.27
2023-12-08T05:00:08.013Z,10.88
2023-12-08T05:02:34.592Z,10.88
2023-12-08T05:05:01.700Z,11.07
2023-12-08T05:07:29.850Z,10.43
2023-12-08T05:09:56.364Z,10.43
2023-12-08T05:12:23.011Z,10.43
2023-12-08T05:14:49.597Z,9.70
2023-12-08T05:17:16.360Z,10.05
2023-12-08T05:19:42.926Z,10.88
2023-12-08T05:22:09.436Z,10.55
2023-12-08T05:24:35.952Z,10.50
2023-12-08T05:27:03.637Z,10.07
2023-12-08T05:29:30.642Z,10.13
2023-12-08T05:31:57.587Z,10.52
2023-12-08T05:34:24.232Z,10.73
2023-12-08T05:36:50.863Z,11.15
2023-12-08T05:39:17.671Z,10.23
2023-12-08T05:41:44.509Z,10.80
2023-12-08T05:44:11.060Z,10.68
2023-12-08T05:46:37.619Z,10.45
2023-12-08T05:49:04.321Z,11.00
2023-12-08T05:51:30.872Z,10.68
2023-12-08T05:53:57.548Z,11.18
2023-12-08T05:56:24.569Z,10.95
2023-12-08T05:58:51.062Z,11.05
2023-12-08T06:01:17.656Z,10.90
2023-12-08T06:03:44.153Z,11.13
2023-12-08T06:06:10.759Z,11.27
2023-12-08T06:08:37.804Z,10.10
2023-12-08T06:11:04.741Z,10.85
2023-12-08T06:13:31.836Z,10.70
2023-12-08T06:15:58.449Z,10.68
2023-12-08T06:18:25.400Z,10.73
2023-12-08T06:20:52.473Z,11.40
2023-12-08T06:23:19.012Z,10.65
2023-12-08T06:25:45.633Z,10.75
2023-12-08T06:28:12.292Z,10.93
2023-12-08T06:30:38.852Z,10.90
2023-12-08T06:33:05.548Z,10.80
2023-12-08T06:35:32.065Z,11.18
2023-12-08T06:37:58.589Z,11.27
2023-12-08T06:40:25.213Z,11.23
2023-12-08T06:42:51.785Z,11.23
2023-12-08T06:45:18.288Z,10.90
2023-12-08T06:47:44.958Z,11.88
2023-12-08T06:50:11.616Z,11.90
2023-12-08T06:52:38.165Z,11.32
2023-12-08T06:55:05.054Z,11.40
2023-12-08T06:57:31.763Z,11.02
2023-12-08T06:59:58.914Z,11.48
2023-12-08T07:02:27.174Z,11.98
2023-12-08T07:04:53.967Z,10.80
2023-12-08T07:07:21.195Z,11.27
2023-12-08T07:09:47.754Z,11.27
2023-12-08T07:12:14.407Z,11.52
2023-12-08T07:14:40.973Z,11.25
2023-12-08T07:17:07.579Z,11.70
2023-12-08T07:19:34.327Z,12.38
2023-12-08T07:22:00.920Z,12.23
2023-12-08T07:24:27.420Z,11.93
2023-12-08T07:26:56.052Z,12.00
2023-12-08T07:29:24.477Z,10.95
2023-12-08T07:31:51.051Z,11.88
2023-12-08T07:34:17.801Z,12.13
2023-12-08T07:36:44.299Z,12.20
2023-12-08T07:39:11.522Z,13.18
2023-12-08T07:41:38.344Z,12.18
2023-12-08T07:44:05.041Z,12.43
2023-12-08T07:46:31.840Z,12.63
2023-12-08T07:48:59.398Z,12.27
2023-12-08T07:51:26.240Z,12.48
2023-12-08T07:53:53.272Z,11.90
2023-12-08T07:56:19.893Z,13.10
2023-12-08T07:58:46.421Z,12.02
2023-12-08T08:01:13.313Z,10.93
2023-12-08T08:03:39.942Z,12.18
2023-12-08T08:06:06.970Z,12.95
2023-12-08T08:08:34.325Z,12.98
2023-12-08T08:11:00.824Z,12.70
2023-12-08T08:13:28.499Z,12.45
2023-12-08T08:15:54.992Z,11.95
2023-12-08T08:18:21.663Z,11.90
2023-12-08T08:20:48.431Z,12.85
2023-12-08T08:23:14.932Z,12.70
2023-12-08T08:25:41.594Z,13.30
2023-12-08T08:28:08.369Z,12.80
2023-12-08T08:30:35.306Z,12.32
2023-12-08T08:33:02.057Z,11.73
2023-12-08T08:35:28.716Z,12.52
2023-12-08T08:37:55.268Z,12.88
2023-12-08T08:40:21.809Z,11.82
2023-12-08T08:42:48.398Z,11.98
2023-12-08T08:45:15.048Z,11.95
2023-12-08T08:47:41.941Z,12.35
2023-12-08T08:50:09.023Z,12.65
2023-12-08T08:52:36.730Z,12.82
2023-12-08T08:55:04.999Z,12.48
2023-12-08T08:57:32.012Z,12.15
2023-12-08T08:59:58.677Z,11.20
2023-12-08T09:02:26.294Z,11.23
2023-12-08T09:04:53.163Z,10.70
2023-12-08T09:07:19.851Z,11.13
2023-12-08T09:09:47.165Z,10.30
2023-12-08T09:12:14.598Z,10.82
2023-12-08T09:14:41.263Z,10.98
2023-12-08T09:17:07.837Z,10.93
2023-12-08T09:19:36.341Z,11.30
2023-12-08T09:22:02.927Z,11.07
2023-12-08T09:24:29.424Z,10.88
2023-12-08T09:26:55.977Z,11.80
2023-12-08T09:29:22.687Z,11.30
2023-12-08T09:31:50.106Z,12.25
2023-12-08T09:37:24.249Z,11.80
2023-12-08T09:39:30.571Z,11.80
2023-12-08T09:42:01.852Z,12.80
2023-12-08T09:44:29.354Z,11.88
2023-12-08T09:46:57.862Z,11.18
2023-12-08T09:49:29.753Z,12.40
2023-12-08T09:51:56.931Z,11.90
2023-12-08T09:54:24.669Z,12.18
2023-12-08T09:56:55.747Z,12.35
2023-12-08T09:59:30.431Z,12.32
2023-12-08T10:01:57.653Z,11.82
2023-12-08T10:04:27.503Z,12.30
2023-12-08T10:06:57.579Z,12.70
2023-12-08T10:09:24.207Z,11.85
2023-12-08T10:11:51.680Z,11.73
2023-12-08T10:14:19.851Z,12.93
2023-12-08T10:16:48.464Z,12.15
2023-12-08T10:21:41.656Z,10.55
2023-12-08T10:24:11.162Z,12.02
2023-12-08T10:26:37.794Z,12.48
2023-12-08T10:29:04.382Z,12.13
2023-12-08T10:31:31.175Z,13.63
2023-12-08T10:33:58.216Z,12.40
2023-12-08T10:36:25.661Z,12.93
2023-12-08T10:38:53.455Z,12.93
2023-12-08T10:41:20.529Z,12.30
2023-12-08T10:43:47.053Z,13.57
2023-12-08T10:46:13.884Z,12.27
2023-12-08T10:48:42.063Z,12.57
2023-12-08T10:51:15.041Z,12.65
2023-12-08T10:53:45.384Z,12.70
2023-12-08T10:56:16.786Z,12.95
2023-12-08T10:58:45.793Z,12.80
2023-12-08T11:01:15.640Z,13.00
2023-12-08T11:03:51.969Z,14.20
2023-12-08T11:06:32.278Z,12.80
2023-12-08T11:09:02.359Z,12.35
2023-12-08T11:11:33.508Z,13.27
2023-12-08T11:14:13.425Z,13.13
2023-12-08T11:16:43.548Z,13.70
2023-12-08T11:19:12.735Z,13.00
2023-12-08T11:21:39.452Z,13.55
2023-12-08T11:24:09.334Z,15.05
2023-12-08T11:26:41.978Z,15.15
2023-12-08T11:29:36.316Z,15.15
2023-12-08T11:32:21.270Z,15.48
2023-12-08T11:34:56.917Z,15.18
2023-12-08T11:37:23.993Z,14.35
2023-12-08T11:39:51.143Z,15.75
2023-12-08T11:42:21.938Z,15.02
2023-12-08T11:44:49.913Z,15.00
2023-12-08T11:47:22.529Z,15.73
2023-12-08T11:49:50.320Z,16.80
2023-12-08T11:52:19.502Z,16.10
2023-12-08T11:55:17.704Z,16.00
2023-12-08T11:57:49.920Z,14.35
2023-12-08T12:00:21.644Z,15.65
2023-12-08T12:02:49.883Z,15.23
2023-12-08T12:07:49.718Z,14.52
2023-12-08T12:10:18.456Z,14.30
2023-12-08T12:12:56.316Z,14.55
2023-12-08T12:15:26.448Z,13.73
2023-12-08T12:17:53.648Z,13.90
2023-12-08T12:20:20.429Z,13.35
2023-12-08T12:22:46.992Z,15.10
2023-12-08T12:25:13.534Z,14.13
2023-12-08T12:27:48.480Z,16.27
2023-12-08T12:30:16.925Z,15.20
2023-12-08T12:32:45.757Z,14.65
2023-12-08T12:35:12.468Z,15.05
2023-12-08T12:37:39.005Z,14.93
2023-12-08T12:40:10.343Z,14.27
2023-12-08T12:42:43.905Z,14.90
2023-12-08T12:45:27.080Z,15.10
2023-12-08T12:48:11.029Z,14.80
2023-12-08T12:50:53.116Z,14.20
2023-12-08T12:53:19.890Z,14.75
2023-12-08T12:55:47.483Z,15.68
2023-12-08T12:58:21.496Z,14.60
2023-12-08T13:00:48.826Z,14.30
2023-12-08T13:03:21.048Z,15.38
2023-12-08T13:05:57.946Z,14.77
2023-12-08T13:08:25.123Z,14.77
2023-12-08T13:10:52.977Z,15.05
2023-12-08T13:13:19.635Z,15.13
2023-12-08T13:15:46.886Z,15.05
2023-12-08T13:18:14.102Z,14.35
2023-12-08T13:20:41.290Z,14.35
2023-12-08T13:23:08.427Z,14.82
2023-12-08T13:25:34.863Z,14.73
2023-12-08T13:28:01.339Z,15.10
2023-12-08T13:30:28.019Z,14.63
2023-12-08T13:32:56.522Z,14.07
2023-12-08T13:35:23.615Z,14.02
2023-12-08T13:37:50.602Z,13.98
2023-12-08T13:40:17.222Z,13.32
2023-12-08T13:42:44.406Z,14.25
2023-12-08T13:45:11.176Z,14.90
2023-12-08T13:47:37.950Z,13.90
2023-12-08T13:50:04.962Z,15.02
2023-12-08T13:52:31.578Z,14.57
2023-12-08T13:54:58.470Z,14.63
2023-12-08T13:57:25.589Z,13.80
2023-12-08T13:59:53.271Z,14.15
2023-12-08T14:02:20.257Z,14.20
2023-12-08T14:04:46.871Z,13.90
2023-12-08T14:07:13.750Z,13.75
2023-12-08T14:09:42.914Z,14.38
2023-12-08T14:12:10.601Z,14.38
2023-12-08T14:14:37.577Z,14.85
2023-12-08T14:17:04.346Z,15.15
2023-12-08T14:19:31.016Z,15.02
2023-12-08T14:21:57.697Z,14.45
2023-12-08T14:24:24.587Z,16.05
2023-12-08T14:26:51.222Z,14.65
2023-12-08T14:29:18.122Z,16.55
2023-12-08T14:31:44.646Z,16.33
2023-12-08T14:34:11.584Z,16.50
2023-12-08T14:36:38.307Z,14.98
2023-12-08T14:39:05.093Z,15.98
2023-12-08T14:41:31.977Z,15.98
2023-12-08T14:43:58.928Z,16.05
2023-12-08T14:46:25.580Z,16.20
2023-12-08T14:48:52.979Z,15.55
2023-12-08T14:51:23.190Z,15.57
2023-12-08T14:53:50.568Z,16.67
2023-12-08T14:56:18.303Z,16.13
2023-12-08T14:58:45.710Z,15.00
2023-12-08T15:01:16.790Z,24.80
2023-12-08T15:03:44.587Z,17.98
2023-12-08T15:06:12.709Z,16.48
2023-12-08T15:08:39.238Z,14.63
2023-12-08T15:11:05.784Z,14.95
2023-12-08T15:13:32.292Z,15.77
2023-12-08T15:15:58.997Z,15.57
2023-12-08T15:18:25.743Z,15.20
2023-12-08T15:20:54.841Z,15.43
2023-12-08T15:23:26.138Z,14.18
2023-12-08T15:25:54.840Z,15.50
2023-12-08T15:28:21.385Z,13.70
2023-12-08T15:30:47.827Z,14.43
2023-12-08T15:33:14.610Z,14.73
2023-12-08T15:35:41.677Z,13.60
2023-12-08T15:38:10.573Z,14.20
2023-12-08T15:40:37.662Z,14.57
2023-12-08T15:43:04.402Z,13.32
2023-12-08T15:45:31.017Z,13.57
2023-12-08T15:47:57.813Z,16.15
2023-12-08T15:50:24.510Z,13.85
2023-12-08T15:52:51.008Z,14.85
2023-12-08T15:55:17.553Z,13.65
2023-12-08T15:57:44.150Z,15.07
2023-12-08T16:00:11.521Z,15.10
2023-12-08T16:02:38.038Z,14.10
2023-12-08T16:05:05.786Z,14.35
2023-12-08T16:07:32.431Z,14.48
2023-12-08T16:09:59.720Z,14.98
2023-12-08T16:12:27.025Z,15.18
2023-12-08T16:14:53.807Z,15.57
2023-12-08T16:17:21.540Z,14.73
2023-12-08T16:19:48.283Z,15.52
2023-12-08T16:22:16.198Z,14.77
2023-12-08T16:24:47.951Z,15.02
2023-12-08T16:27:15.203Z,14.85
2023-12-08T16:29:45.618Z,14.90
2023-12-08T16:32:12.845Z,18.42
2023-12-08T16:34:39.386Z,15.00
2023-12-08T16:37:06.036Z,15.50
2023-12-08T16:39:33.256Z,16.63
2023-12-08T16:41:59.845Z,17.10
2023-12-08T16:44:26.452Z,16.58
2023-12-08T16:46:52.954Z,15.75
2023-12-08T16:49:19.644Z,15.57
2023-12-08T16:51:46.337Z,16.15
2023-12-08T16:54:12.814Z,16.35
2023-12-08T16:56:39.568Z,16.50
2023-12-08T16:59:06.052Z,17.02
2023-12-08T17:01:34.276Z,17.83
2023-12-08T17:06:28.326Z,15.23
2023-12-08T17:08:55.045Z,17.75
2023-12-08T17:11:21.809Z,15.82
2023-12-08T17:13:48.332Z,17.55
2023-12-08T17:16:14.972Z,17.27
2023-12-08T17:18:42.306Z,16.50
2023-12-08T17:21:09.088Z,16.73
2023-12-08T17:23:35.699Z,16.77
2023-12-08T17:26:02.211Z,17.95
2023-12-08T17:28:28.781Z,17.92
2023-12-08T17:30:55.311Z,16.88
2023-12-08T17:33:22.058Z,16.98
2023-12-08T17:35:49.280Z,18.42
2023-12-08T17:38:17.078Z,16.58
2023-12-08T17:40:44.566Z,17.08
2023-12-08T17:43:12.122Z,18.42
2023-12-08T17:45:44.842Z,16.92
2023-12-08T17:48:11.699Z,16.58
2023-12-08T17:50:38.235Z,17.75
2023-12-08T17:53:04.708Z,16.90
2023-12-08T17:55:31.279Z,16.73
2023-12-08T17:57:57.800Z,17.67
2023-12-08T18:00:24.634Z,16.95
2023-12-08T18:02:56.016Z,16.70
2023-12-08T18:05:22.848Z,16.33
2023-12-08T18:07:49.819Z,15.93
2023-12-08T18:10:16.653Z,17.02
2023-12-08T18:12:43.227Z,16.52
2023-12-08T18:15:10.523Z,17.23
2023-12-08T18:17:40.022Z,15.63
2023-12-08T18:20:07.813Z,16.35
2023-12-08T18:22:35.219Z,15.90
2023-12-08T18:25:01.743Z,15.23
2023-12-08T18:27:39.732Z,15.50
2023-12-08T18:30:15.666Z,17.67
2023-12-08T18:32:43.257Z,22.00
2023-12-08T18:35:09.906Z,16.40
2023-12-08T18:37:36.411Z,15.00
2023-12-08T18:40:04.434Z,18.27
2023-12-08T18:42:31.289Z,15.40
2023-12-08T18:44:58.197Z,16.10
2023-12-08T18:47:24.699Z,15.10
2023-12-08T18:49:51.682Z,14.45
2023-12-08T18:52:18.255Z,18.83
2023-12-08T18:54:44.866Z,15.05
2023-12-08T18:57:11.718Z,13.90
2023-12-08T18:59:39.484Z,16.95
2023-12-08T19:02:06.629Z,14.32
2023-12-08T19:04:34.849Z,14.65
2023-12-08T19:07:05.001Z,15.50
2023-12-08T19:09:31.629Z,14.63
2023-12-08T19:11:59.457Z,14.18
2023-12-08T19:14:27.619Z,15.60
2023-12-08T19:16:54.168Z,14.13
2023-12-08T19:19:22.074Z,13.25
2023-12-08T19:21:48.633Z,14.18
2023-12-08T19:24:15.213Z,13.68
2023-12-08T19:26:42.188Z,13.30
2023-12-08T19:29:08.703Z,13.02
2023-12-08T19:31:35.706Z,12.95
2023-12-08T19:34:02.303Z,13.05
2023-12-08T19:36:29.296Z,14.63
2023-12-08T19:39:00.630Z,13.90
2023-12-08T19:41:27.947Z,12.90
2023-12-08T19:43:54.493Z,12.35
2023-12-08T19:46:21.056Z,12.63
2023-12-08T19:48:47.767Z,13.98
2023-12-08T19:51:14.698Z,12.63
2023-12-08T19:53:42.048Z,13.63
2023-12-08T19:56:08.833Z,12.75
2023-12-08T19:58:35.307Z,13.13
2023-12-08T20:01:01.887Z,12.02
2023-12-08T20:03:28.658Z,14.30
2023-12-08T20:05:56.631Z,12.75
2023-12-08T20:08:23.247Z,16.55
2023-12-08T20:10:50.023Z,13.07
2023-12-08T20:13:16.539Z,14.52
2023-12-08T20:15:45.603Z,12.75
2023-12-08T20:18:12.481Z,13.07
2023-12-08T20:20:39.825Z,13.38
2023-12-08T20:23:06.773Z,12.35
2023-12-08T20:25:33.291Z,12.30
2023-12-08T20:28:00.005Z,13.63
2023-12-08T20:30:27.068Z,13.85
2023-12-08T20:32:56.925Z,12.07
2023-12-08T20:35:23.643Z,13.23
2023-12-08T20:37:50.123Z,11.88
2023-12-08T20:40:16.837Z,13.15
2023-12-08T20:42:43.436Z,12.48
2023-12-08T20:45:10.672Z,13.07
2023-12-08T20:47:37.292Z,12.25
2023-12-08T20:50:04.050Z,12.90
2023-12-08T20:52:30.550Z,13.20
2023-12-08T20:54:57.030Z,11.95
2023-12-08T20:57:23.646Z,12.32
2023-12-08T20:59:50.303Z,12.60
2023-12-08T21:02:16.970Z,12.90
2023-12-08T21:04:43.523Z,11.45
2023-12-08T21:07:10.247Z,12.18
2023-12-08T21:09:37.368Z,12.18
2023-12-08T21:12:04.588Z,12.32
2023-12-08T21:14:31.125Z,11.80
2023-12-08T21:16:57.643Z,11.88
2023-12-08T21:19:24.329Z,12.45
2023-12-08T21:21:51.011Z,11.52
2023-12-08T21:24:17.612Z,12.23
2023-12-08T21:26:44.383Z,11.57
2023-12-08T21:29:11.088Z,11.18
2023-12-08T21:31:37.543Z,10.77
2023-12-08T21:34:04.116Z,10.70
2023-12-08T21:36:33.319Z,11.43
2023-12-08T21:39:00.559Z,10.60
2023-12-08T21:41:27.102Z,10.20
2023-12-08T21:43:53.896Z,9.65
2023-12-08T21:46:20.420Z,9.98
2023-12-08T21:48:47.075Z,10.27
2023-12-08T21:51:13.641Z,9.90
2023-12-08T21:53:40.775Z,9.95
2023-12-08T21:56:07.672Z,9.68
2023-12-08T21:58:34.265Z,9.25
2023-12-08T22:01:03.023Z,9.80
2023-12-08T22:03:31.491Z,9.40
2023-12-08T22:05:58.364Z,9.73
2023-12-08T22:08:24.780Z,10.05
2023-12-08T22:10:51.354Z,10.05
2023-12-08T22:13:17.852Z,9.98
2023-12-08T22:15:47.390Z,10.13
2023-12-08T22:18:13.992Z,9.52
2023-12-08T22:20:40.860Z,9.43
2023-12-08T22:23:07.399Z,9.77
2023-12-08T22:25:36.014Z,9.32
2023-12-08T22:28:02.845Z,9.50
2023-12-08T22:30:29.413Z,9.40
2023-12-08T22:32:56.110Z,9.50
2023-12-08T22:35:25.155Z,9.32
2023-12-08T22:37:51.584Z,10.18
2023-12-08T22:40:18.190Z,9.38
2023-12-08T22:42:44.676Z,9.43
2023-12-08T22:45:11.243Z,10.32
2023-12-08T22:47:37.727Z,9.27
2023-12-08T22:50:04.972Z,9.48
2023-12-08T22:52:32.019Z,9.80
2023-12-08T22:54:58.850Z,9.90
2023-12-08T22:57:25.448Z,9.38
2023-12-08T22:59:52.140Z,10.20
2023-12-08T23:02:18.621Z,9.20
2023-12-08T23:04:45.202Z,9.70
2023-12-08T23:07:12.394Z,9.57
2023-12-08T23:09:39.022Z,9.07
2023-12-08T23:12:06.745Z,8.77
2023-12-08T23:14:33.337Z,8.93
2023-12-08T23:16:59.878Z,9.45
2023-12-08T23:19:26.738Z,8.90
2023-12-08T23:21:53.261Z,8.63
2023-12-08T23:24:20.328Z,9.38
2023-12-08T23:26:46.946Z,8.45
2023-12-08T23:29:13.596Z,7.85
2023-12-08T23:31:40.174Z,8.75
2023-12-08T23:34:07.294Z,8.48
2023-12-08T23:36:33.969Z,8.75
2023-12-08T23:39:02.716Z,8.50
2023-12-08T23:41:29.373Z,8.40
2023-12-08T23:43:56.107Z,8.48
2023-12-08T23:46:22.664Z,8.45
2023-12-08T23:48:50.970Z,8.00
2023-12-08T23:51:17.646Z,7.93
2023-12-08T23:53:44.915Z,7.50
2023-12-08T23:56:11.424Z,8.18
2023-12-08T23:58:37.970Z,7.70
